sensor_id;sensor_type;location;lat;lon;timestamp;pressure;altitude;pressure_sealevel;temperature;humidity
3832;BME280;12460;42.662;23.288;2023-04-25T00:11:16;93755.75;;;13.08;67.20
3832;BME280;12460;42.662;23.288;2023-04-25T00:26:20;93729.16;;;12.90;65.60
3832;BME280;12460;42.662;23.288;2023-04-25T00:41:26;93731.75;;;13.30;65.64
3832;BME280;12460;42.662;23.288;2023-04-25T00:56:30;93714.31;;;13.22;66.23
3832;BME280;12460;42.662;23.288;2023-04-25T01:11:34;93718.41;;;12.56;69.22
3832;BME280;12460;42.662;23.288;2023-04-25T01:26:40;93696.72;;;12.37;71.28
3832;BME280;12460;42.662;23.288;2023-04-25T01:41:48;93703.38;;;12.63;70.46
3832;BME280;12460;42.662;23.288;2023-04-25T01:56:57;93720.63;;;12.79;70.25
3832;BME280;12460;42.662;23.288;2023-04-25T02:12:02;93709.81;;;12.54;70.90
3832;BME280;12460;42.662;23.288;2023-04-25T02:27:30;93677.06;;;12.07;71.36
3832;BME280;12460;42.662;23.288;2023-04-25T02:42:33;93674.47;;;12.41;71.25
3832;BME280;12460;42.662;23.288;2023-04-25T02:57:38;93651.44;;;12.03;71.17
3832;BME280;12460;42.662;23.288;2023-04-25T03:12:45;93648.47;;;12.01;70.71
3832;BME280;12460;42.662;23.288;2023-04-25T03:27:50;93627.28;;;11.78;72.15
3832;BME280;12460;42.662;23.288;2023-04-25T03:42:55;93645.25;;;11.73;72.13
3832;BME280;12460;42.662;23.288;2023-04-25T03:58:00;93630.00;;;14.46;65.82
3832;BME280;12460;42.662;23.288;2023-04-25T04:13:05;93642.53;;;16.24;59.11
3832;BME280;12460;42.662;23.288;2023-04-25T04:28:10;93648.38;;;14.22;63.03
3832;BME280;12460;42.662;23.288;2023-04-25T04:43:37;93651.69;;;13.26;66.94
3832;BME280;12460;42.662;23.288;2023-04-25T04:59:07;93665.31;;;13.06;68.35
3832;BME280;12460;42.662;23.288;2023-04-25T05:14:30;93683.22;;;12.78;68.86
3832;BME280;12460;42.662;23.288;2023-04-25T05:29:44;93674.72;;;12.45;70.59
3832;BME280;12460;42.662;23.288;2023-04-25T05:45:07;93678.78;;;12.54;70.69
3832;BME280;12460;42.662;23.288;2023-04-25T06:00:27;93693.69;;;12.66;71.01
3832;BME280;12460;42.662;23.288;2023-04-25T06:15:32;93674.09;;;13.01;69.98
3832;BME280;12460;42.662;23.288;2023-04-25T06:30:37;93691.66;;;13.67;68.16
3832;BME280;12460;42.662;23.288;2023-04-25T06:45:46;93701.56;;;14.60;64.39
3832;BME280;12460;42.662;23.288;2023-04-25T07:00:51;93694.47;;;14.36;63.70
3832;BME280;12460;42.662;23.288;2023-04-25T07:15:59;93679.50;;;14.22;64.49
3832;BME280;12460;42.662;23.288;2023-04-25T07:31:05;93681.34;;;15.03;62.58
3832;BME280;12460;42.662;23.288;2023-04-25T07:46:10;93681.63;;;14.95;62.82
3832;BME280;12460;42.662;23.288;2023-04-25T08:01:15;93674.53;;;15.58;59.46
3832;BME280;12460;42.662;23.288;2023-04-25T08:16:31;93663.56;;;16.59;56.67
3832;BME280;12460;42.662;23.288;2023-04-25T08:31:36;93662.38;;;16.78;55.23
3832;BME280;12460;42.662;23.288;2023-04-25T08:46:46;93655.66;;;18.06;54.74
3832;BME280;12460;42.662;23.288;2023-04-25T09:02:03;93629.47;;;21.65;44.07
3832;BME280;12460;42.662;23.288;2023-04-25T09:17:08;93617.34;;;20.79;44.79
3832;BME280;12460;42.662;23.288;2023-04-25T09:32:25;93604.41;;;19.23;42.51
3832;BME280;12460;42.662;23.288;2023-04-25T09:47:32;93616.59;;;22.62;37.07
3832;BME280;12460;42.662;23.288;2023-04-25T10:02:46;93605.41;;;21.28;36.94
3832;BME280;12460;42.662;23.288;2023-04-25T10:18:12;93635.34;;;19.31;44.32
3832;BME280;12460;42.662;23.288;2023-04-25T10:33:17;93593.69;;;23.20;42.18
3832;BME280;12460;42.662;23.288;2023-04-25T10:48:26;93583.34;;;23.66;35.15
3832;BME280;12460;42.662;23.288;2023-04-25T11:03:31;93591.94;;;23.07;34.44
3832;BME280;12460;42.662;23.288;2023-04-25T11:18:36;93573.63;;;22.64;34.73
3832;BME280;12460;42.662;23.288;2023-04-25T11:33:42;93591.44;;;20.95;37.80
3832;BME280;12460;42.662;23.288;2023-04-25T11:48:47;93616.28;;;19.18;43.00
3832;BME280;12460;42.662;23.288;2023-04-25T12:03:55;93593.84;;;18.57;46.15
3832;BME280;12460;42.662;23.288;2023-04-25T12:18:58;93574.53;;;17.42;48.64
3832;BME280;12460;42.662;23.288;2023-04-25T12:34:03;93599.66;;;18.10;48.33
3832;BME280;12460;42.662;23.288;2023-04-25T12:49:08;93641.78;;;18.14;48.72
3832;BME280;12460;42.662;23.288;2023-04-25T13:04:21;93660.00;;;17.46;51.35
3832;BME280;12460;42.662;23.288;2023-04-25T13:19:24;93661.88;;;16.41;57.85
3832;BME280;12460;42.662;23.288;2023-04-25T13:34:31;93656.78;;;15.44;60.81
3832;BME280;12460;42.662;23.288;2023-04-25T13:49:35;93649.94;;;14.74;61.96
3832;BME280;12460;42.662;23.288;2023-04-25T14:04:41;93624.78;;;15.55;60.18
3832;BME280;12460;42.662;23.288;2023-04-25T14:19:44;93598.69;;;16.54;57.58
3832;BME280;12460;42.662;23.288;2023-04-25T14:34:49;93597.34;;;17.13;55.23
3832;BME280;12460;42.662;23.288;2023-04-25T14:49:55;93580.28;;;17.13;54.88
3832;BME280;12460;42.662;23.288;2023-04-25T15:05:00;93572.59;;;17.16;53.71
3832;BME280;12460;42.662;23.288;2023-04-25T15:20:09;93551.94;;;16.41;56.42
3832;BME280;12460;42.662;23.288;2023-04-25T15:35:14;93544.72;;;15.16;58.89
3832;BME280;12460;42.662;23.288;2023-04-25T15:50:18;93538.28;;;15.54;59.72
3832;BME280;12460;42.662;23.288;2023-04-25T16:05:22;93551.81;;;15.83;59.79
3832;BME280;12460;42.662;23.288;2023-04-25T16:20:29;93543.53;;;15.60;57.69
3832;BME280;12460;42.662;23.288;2023-04-25T16:35:33;93555.94;;;15.14;57.70
3832;BME280;12460;42.662;23.288;2023-04-25T16:50:38;93553.72;;;14.74;60.74
3832;BME280;12460;42.662;23.288;2023-04-25T17:05:42;93608.91;;;14.24;62.90
3832;BME280;12460;42.662;23.288;2023-04-25T17:20:47;93625.19;;;13.77;63.13
3832;BME280;12460;42.662;23.288;2023-04-25T17:35:52;93626.66;;;13.67;63.00
3832;BME280;12460;42.662;23.288;2023-04-25T17:50:57;93656.66;;;13.60;63.49
3832;BME280;12460;42.662;23.288;2023-04-25T18:06:03;93664.72;;;13.31;62.29
3832;BME280;12460;42.662;23.288;2023-04-25T18:21:08;93671.81;;;13.09;62.61
3832;BME280;12460;42.662;23.288;2023-04-25T18:36:13;93677.19;;;12.84;62.91
3832;BME280;12460;42.662;23.288;2023-04-25T18:51:18;93671.91;;;12.78;62.27
3832;BME280;12460;42.662;23.288;2023-04-25T19:06:26;93673.63;;;12.72;62.36
3832;BME280;12460;42.662;23.288;2023-04-25T19:21:32;93668.22;;;12.76;61.93
3832;BME280;12460;42.662;23.288;2023-04-25T19:36:38;93677.59;;;12.90;60.98
3832;BME280;12460;42.662;23.288;2023-04-25T19:51:43;93683.50;;;12.94;60.81
3832;BME280;12460;42.662;23.288;2023-04-25T20:06:49;93682.38;;;12.87;60.62
3832;BME280;12460;42.662;23.288;2023-04-25T20:21:54;93682.25;;;12.85;58.86
3832;BME280;12460;42.662;23.288;2023-04-25T20:36:58;93689.03;;;12.92;58.58
3832;BME280;12460;42.662;23.288;2023-04-25T20:52:05;93678.13;;;12.98;57.86
3832;BME280;12460;42.662;23.288;2023-04-25T21:07:11;93667.31;;;12.94;60.13
3832;BME280;12460;42.662;23.288;2023-04-25T21:22:18;93667.31;;;12.94;61.56
3832;BME280;12460;42.662;23.288;2023-04-25T21:37:22;93681.75;;;12.89;61.37
3832;BME280;12460;42.662;23.288;2023-04-25T21:52:27;93668.28;;;12.87;61.17
3832;BME280;12460;42.662;23.288;2023-04-25T22:07:31;93672.72;;;12.90;59.84
3832;BME280;12460;42.662;23.288;2023-04-25T22:22:36;93671.34;;;12.91;59.50
3832;BME280;12460;42.662;23.288;2023-04-25T22:37:41;93664.09;;;12.88;61.07
3832;BME280;12460;42.662;23.288;2023-04-25T22:52:46;93668.22;;;12.76;61.91
3832;BME280;12460;42.662;23.288;2023-04-25T23:07:51;93657.91;;;12.69;61.87
3832;BME280;12460;42.662;23.288;2023-04-25T23:22:56;93662.44;;;12.41;63.74
3832;BME280;12460;42.662;23.288;2023-04-25T23:38:01;93646.78;;;12.07;65.66
3832;BME280;12460;42.662;23.288;2023-04-25T23:53:06;93613.41;;;11.92;65.60
